TAF LFBZ
AMD LFBZ 081911Z 0819/0918 24010KT 9999 BKN035 TEMPO 0819/0906 27020G35KT 4000 SHRA BKN015 BKN025TCU PROB40 TEMPO 0819/0821 3000 TSRA BKN020CB PROB30 TEMPO 0819/0903 27020G50KT BECMG 0906/0908 4000 RA BKN020 TEMPO 0908/0918 2000 RA BKN010 TEMPO 0916/0918 28015G30KT=
METAR LFBZ
LFBZ 082100Z AUTO 30011KT 9999 FEW029/// BKN046/// BKN056/// ///TCU 08/04 Q1013 TEMPO 27020G50KT 4000 SHRA=
LFBZ 082030Z AUTO 31015KT 9999 -RA BKN030/// BKN036/// BKN043/// ///CB 07/03 Q1013 TEMPO 27020G50KT 4000 SHRA=
LFBZ 082000Z AUTO 31010G21KT 280V340 9999 -RA FEW014/// SCT025/// BKN039/// ///CB 06/04 Q1013 TEMPO 27020G50KT 4000 SHRA=
LFBZ 081930Z AUTO 26007KT 220V290 9999 2200 -SNRA BKN013/// BKN024/// BKN037/// ///CB 05/04 Q1012 TEMPO 27020G50KT 4000 SHRA BKN015 BKN025TCU=
LFBZ 081900Z AUTO 30012G27KT 210V010 9999 RA VCTS BKN016/// BKN025/// OVC036/// ///CB 07/05 Q1012 TEMPO 27020G50KT 4000 SHRA=
WC LFBZ
WS LFBZ
WV LFBZ